sensor_id;sensor_type;location;lat;lon;timestamp;temperature;humidity
19536;HTU21D;9913;51.168;4.124;2023-10-09T00:00:14;15.49;105.75
19536;HTU21D;9913;51.168;4.124;2023-10-09T00:02:57;15.45;105.89
19536;HTU21D;9913;51.168;4.124;2023-10-09T00:05:28;15.51;105.98
19536;HTU21D;9913;51.168;4.124;2023-10-09T00:08:06;15.44;105.85
19536;HTU21D;9913;51.168;4.124;2023-10-09T00:10:38;15.40;106.07
19536;HTU21D;9913;51.168;4.124;2023-10-09T00:13:17;15.44;106.06
19536;HTU21D;9913;51.168;4.124;2023-10-09T00:15:46;15.52;105.92
19536;HTU21D;9913;51.168;4.124;2023-10-09T00:18:20;15.49;105.90
19536;HTU21D;9913;51.168;4.124;2023-10-09T00:20:56;15.52;106.00
19536;HTU21D;9913;51.168;4.124;2023-10-09T00:23:38;15.45;106.19
19536;HTU21D;9913;51.168;4.124;2023-10-09T00:26:07;15.48;106.29
19536;HTU21D;9913;51.168;4.124;2023-10-09T00:28:49;15.45;106.21
19536;HTU21D;9913;51.168;4.124;2023-10-09T00:31:19;15.46;106.19
19536;HTU21D;9913;51.168;4.124;2023-10-09T00:33:57;15.48;106.10
19536;HTU21D;9913;51.168;4.124;2023-10-09T00:36:35;15.48;106.08
19536;HTU21D;9913;51.168;4.124;2023-10-09T00:39:18;15.54;105.89
19536;HTU21D;9913;51.168;4.124;2023-10-09T00:42:00;15.54;105.95
19536;HTU21D;9913;51.168;4.124;2023-10-09T00:44:31;15.41;105.98
19536;HTU21D;9913;51.168;4.124;2023-10-09T00:47:06;15.49;106.05
19536;HTU21D;9913;51.168;4.124;2023-10-09T00:49:50;15.45;106.13
19536;HTU21D;9913;51.168;4.124;2023-10-09T00:52:21;15.44;106.27
19536;HTU21D;9913;51.168;4.124;2023-10-09T00:54:59;15.48;106.26
19536;HTU21D;9913;51.168;4.124;2023-10-09T00:57:36;15.52;106.16
19536;HTU21D;9913;51.168;4.124;2023-10-09T01:00:10;15.55;105.83
19536;HTU21D;9913;51.168;4.124;2023-10-09T01:02:57;15.58;105.76
19536;HTU21D;9913;51.168;4.124;2023-10-09T01:05:38;15.62;105.89
19536;HTU21D;9913;51.168;4.124;2023-10-09T01:08:12;15.67;105.53
19536;HTU21D;9913;51.168;4.124;2023-10-09T01:10:52;15.60;105.77
19536;HTU21D;9913;51.168;4.124;2023-10-09T01:13:24;15.56;106.02
19536;HTU21D;9913;51.168;4.124;2023-10-09T01:16:08;15.65;105.63
19536;HTU21D;9913;51.168;4.124;2023-10-09T01:18:42;15.56;105.02
19536;HTU21D;9913;51.168;4.124;2023-10-09T01:21:11;15.55;105.60
19536;HTU21D;9913;51.168;4.124;2023-10-09T01:23:44;15.41;105.86
19536;HTU21D;9913;51.168;4.124;2023-10-09T01:26:38;15.60;105.63
19536;HTU21D;9913;51.168;4.124;2023-10-09T01:29:15;15.66;105.26
19536;HTU21D;9913;51.168;4.124;2023-10-09T01:31:45;15.71;104.92
19536;HTU21D;9913;51.168;4.124;2023-10-09T01:34:18;15.76;104.79
19536;HTU21D;9913;51.168;4.124;2023-10-09T01:36:51;15.71;105.32
19536;HTU21D;9913;51.168;4.124;2023-10-09T01:39:24;15.65;105.06
19536;HTU21D;9913;51.168;4.124;2023-10-09T01:41:55;15.68;105.30
19536;HTU21D;9913;51.168;4.124;2023-10-09T01:44:27;15.56;105.37
19536;HTU21D;9913;51.168;4.124;2023-10-09T01:47:01;15.47;105.58
19536;HTU21D;9913;51.168;4.124;2023-10-09T01:49:34;15.51;105.43
19536;HTU21D;9913;51.168;4.124;2023-10-09T01:52:04;15.51;105.61
19536;HTU21D;9913;51.168;4.124;2023-10-09T01:54:38;15.47;105.57
19536;HTU21D;9913;51.168;4.124;2023-10-09T01:57:08;15.34;105.61
19536;HTU21D;9913;51.168;4.124;2023-10-09T01:59:41;15.32;105.77
19536;HTU21D;9913;51.168;4.124;2023-10-09T02:02:13;15.38;105.70
19536;HTU21D;9913;51.168;4.124;2023-10-09T02:04:56;15.39;105.74
19536;HTU21D;9913;51.168;4.124;2023-10-09T02:07:34;15.36;105.58
19536;HTU21D;9913;51.168;4.124;2023-10-09T02:10:11;15.48;105.52
19536;HTU21D;9913;51.168;4.124;2023-10-09T02:12:48;15.37;105.54
19536;HTU21D;9913;51.168;4.124;2023-10-09T02:15:21;15.37;105.69
19536;HTU21D;9913;51.168;4.124;2023-10-09T02:18:08;15.36;105.82
19536;HTU21D;9913;51.168;4.124;2023-10-09T02:20:47;15.42;105.54
19536;HTU21D;9913;51.168;4.124;2023-10-09T02:23:23;15.47;105.15
19536;HTU21D;9913;51.168;4.124;2023-10-09T02:25:58;15.43;105.41
19536;HTU21D;9913;51.168;4.124;2023-10-09T02:28:30;15.31;105.76
19536;HTU21D;9913;51.168;4.124;2023-10-09T02:31:00;15.30;105.72
19536;HTU21D;9913;51.168;4.124;2023-10-09T02:33:30;15.32;105.75
19536;HTU21D;9913;51.168;4.124;2023-10-09T02:36:00;15.37;105.92
19536;HTU21D;9913;51.168;4.124;2023-10-09T02:38:32;15.37;105.63
19536;HTU21D;9913;51.168;4.124;2023-10-09T02:41:10;15.42;105.44
19536;HTU21D;9913;51.168;4.124;2023-10-09T02:43:58;15.33;105.53
19536;HTU21D;9913;51.168;4.124;2023-10-09T02:46:31;15.31;105.82
19536;HTU21D;9913;51.168;4.124;2023-10-09T02:49:02;15.30;105.68
19536;HTU21D;9913;51.168;4.124;2023-10-09T02:51:35;15.38;105.21
19536;HTU21D;9913;51.168;4.124;2023-10-09T02:54:09;15.31;105.38
19536;HTU21D;9913;51.168;4.124;2023-10-09T02:56:55;15.27;105.47
19536;HTU21D;9913;51.168;4.124;2023-10-09T02:59:32;15.17;105.47
19536;HTU21D;9913;51.168;4.124;2023-10-09T03:02:00;15.19;105.47
19536;HTU21D;9913;51.168;4.124;2023-10-09T03:04:29;15.12;105.59
19536;HTU21D;9913;51.168;4.124;2023-10-09T03:06:57;15.08;105.76
19536;HTU21D;9913;51.168;4.124;2023-10-09T03:09:26;15.10;105.65
19536;HTU21D;9913;51.168;4.124;2023-10-09T03:11:58;15.01;105.89
19536;HTU21D;9913;51.168;4.124;2023-10-09T03:14:31;15.07;105.68
19536;HTU21D;9913;51.168;4.124;2023-10-09T03:17:02;15.06;105.79
19536;HTU21D;9913;51.168;4.124;2023-10-09T03:19:32;15.04;105.79
19536;HTU21D;9913;51.168;4.124;2023-10-09T03:22:05;15.13;105.85
19536;HTU21D;9913;51.168;4.124;2023-10-09T03:24:37;15.08;105.73
19536;HTU21D;9913;51.168;4.124;2023-10-09T03:27:07;15.19;105.82
19536;HTU21D;9913;51.168;4.124;2023-10-09T03:29:36;15.22;105.43
19536;HTU21D;9913;51.168;4.124;2023-10-09T03:32:04;15.21;105.71
19536;HTU21D;9913;51.168;4.124;2023-10-09T03:34:33;15.22;105.66
19536;HTU21D;9913;51.168;4.124;2023-10-09T03:37:02;15.26;105.50
19536;HTU21D;9913;51.168;4.124;2023-10-09T03:39:32;15.29;105.78
19536;HTU21D;9913;51.168;4.124;2023-10-09T03:42:09;15.16;105.79
19536;HTU21D;9913;51.168;4.124;2023-10-09T03:44:46;15.14;106.07
19536;HTU21D;9913;51.168;4.124;2023-10-09T03:47:19;15.19;105.76
19536;HTU21D;9913;51.168;4.124;2023-10-09T03:49:50;15.21;105.94
19536;HTU21D;9913;51.168;4.124;2023-10-09T03:52:20;15.19;105.58
19536;HTU21D;9913;51.168;4.124;2023-10-09T03:54:53;15.26;105.37
19536;HTU21D;9913;51.168;4.124;2023-10-09T03:57:23;15.41;105.39
19536;HTU21D;9913;51.168;4.124;2023-10-09T03:59:52;15.36;105.40
19536;HTU21D;9913;51.168;4.124;2023-10-09T04:02:22;15.40;105.26
19536;HTU21D;9913;51.168;4.124;2023-10-09T04:04:51;15.41;105.40
19536;HTU21D;9913;51.168;4.124;2023-10-09T04:07:20;15.34;105.46
19536;HTU21D;9913;51.168;4.124;2023-10-09T04:09:48;15.38;105.57
19536;HTU21D;9913;51.168;4.124;2023-10-09T04:12:31;15.37;105.41
19536;HTU21D;9913;51.168;4.124;2023-10-09T04:15:01;15.41;105.54
19536;HTU21D;9913;51.168;4.124;2023-10-09T04:17:32;15.34;105.92
19536;HTU21D;9913;51.168;4.124;2023-10-09T04:20:02;15.37;105.69
19536;HTU21D;9913;51.168;4.124;2023-10-09T04:22:57;15.41;105.62
19536;HTU21D;9913;51.168;4.124;2023-10-09T04:25:32;15.42;105.79
19536;HTU21D;9913;51.168;4.124;2023-10-09T04:28:11;15.40;105.89
19536;HTU21D;9913;51.168;4.124;2023-10-09T04:30:46;15.43;105.57
19536;HTU21D;9913;51.168;4.124;2023-10-09T04:33:21;15.26;106.14
19536;HTU21D;9913;51.168;4.124;2023-10-09T04:36:10;15.37;105.68
19536;HTU21D;9913;51.168;4.124;2023-10-09T04:38:51;15.36;105.66
19536;HTU21D;9913;51.168;4.124;2023-10-09T04:41:37;15.44;105.62
19536;HTU21D;9913;51.168;4.124;2023-10-09T04:44:20;15.37;105.70
19536;HTU21D;9913;51.168;4.124;2023-10-09T04:46:56;15.36;105.90
19536;HTU21D;9913;51.168;4.124;2023-10-09T04:49:42;15.31;105.92
19536;HTU21D;9913;51.168;4.124;2023-10-09T04:52:17;15.30;106.05
19536;HTU21D;9913;51.168;4.124;2023-10-09T04:55:18;15.25;106.31
19536;HTU21D;9913;51.168;4.124;2023-10-09T04:57:51;15.15;106.67
19536;HTU21D;9913;51.168;4.124;2023-10-09T05:00:37;15.23;106.46
19536;HTU21D;9913;51.168;4.124;2023-10-09T05:03:39;15.23;106.44
19536;HTU21D;9913;51.168;4.124;2023-10-09T05:06:24;15.25;106.38
19536;HTU21D;9913;51.168;4.124;2023-10-09T05:09:22;15.24;106.34
19536;HTU21D;9913;51.168;4.124;2023-10-09T05:11:51;15.19;106.50
19536;HTU21D;9913;51.168;4.124;2023-10-09T05:14:21;15.19;106.69
19536;HTU21D;9913;51.168;4.124;2023-10-09T05:17:07;15.22;106.29
19536;HTU21D;9913;51.168;4.124;2023-10-09T05:19:43;15.21;106.40
19536;HTU21D;9913;51.168;4.124;2023-10-09T05:22:42;15.11;106.72
19536;HTU21D;9913;51.168;4.124;2023-10-09T05:25:25;15.17;106.83
19536;HTU21D;9913;51.168;4.124;2023-10-09T05:28:22;15.11;106.66
19536;HTU21D;9913;51.168;4.124;2023-10-09T05:30:52;15.08;107.01
19536;HTU21D;9913;51.168;4.124;2023-10-09T05:33:31;15.11;107.13
19536;HTU21D;9913;51.168;4.124;2023-10-09T05:36:02;15.07;107.10
19536;HTU21D;9913;51.168;4.124;2023-10-09T05:38:44;15.09;107.11
19536;HTU21D;9913;51.168;4.124;2023-10-09T05:41:22;15.15;107.19
19536;HTU21D;9913;51.168;4.124;2023-10-09T05:44:14;15.22;106.95
19536;HTU21D;9913;51.168;4.124;2023-10-09T05:47:00;15.19;107.07
19536;HTU21D;9913;51.168;4.124;2023-10-09T05:49:47;15.26;106.96
19536;HTU21D;9913;51.168;4.124;2023-10-09T05:52:42;15.23;107.03
19536;HTU21D;9913;51.168;4.124;2023-10-09T05:55:31;15.17;107.14
19536;HTU21D;9913;51.168;4.124;2023-10-09T05:58:17;15.18;107.13
19536;HTU21D;9913;51.168;4.124;2023-10-09T06:01:03;15.26;107.08
19536;HTU21D;9913;51.168;4.124;2023-10-09T06:04:00;15.28;107.10
19536;HTU21D;9913;51.168;4.124;2023-10-09T06:06:44;15.33;107.02
19536;HTU21D;9913;51.168;4.124;2023-10-09T06:09:15;15.21;107.14
19536;HTU21D;9913;51.168;4.124;2023-10-09T06:12:12;15.19;107.54
19536;HTU21D;9913;51.168;4.124;2023-10-09T06:14:57;15.15;107.41
19536;HTU21D;9913;51.168;4.124;2023-10-09T06:17:45;15.22;107.31
19536;HTU21D;9913;51.168;4.124;2023-10-09T06:20:18;15.23;107.17
19536;HTU21D;9913;51.168;4.124;2023-10-09T06:23:05;15.26;107.27
19536;HTU21D;9913;51.168;4.124;2023-10-09T06:25:44;15.26;107.37
19536;HTU21D;9913;51.168;4.124;2023-10-09T06:28:18;15.30;107.26
19536;HTU21D;9913;51.168;4.124;2023-10-09T06:31:00;15.40;107.35
19536;HTU21D;9913;51.168;4.124;2023-10-09T06:33:49;15.37;106.92
19536;HTU21D;9913;51.168;4.124;2023-10-09T06:36:35;15.49;107.10
19536;HTU21D;9913;51.168;4.124;2023-10-09T06:39:14;15.46;107.19
19536;HTU21D;9913;51.168;4.124;2023-10-09T06:42:00;15.33;107.29
19536;HTU21D;9913;51.168;4.124;2023-10-09T06:44:44;15.36;107.62
19536;HTU21D;9913;51.168;4.124;2023-10-09T06:47:20;15.41;107.09
19536;HTU21D;9913;51.168;4.124;2023-10-09T06:49:51;15.56;106.98
19536;HTU21D;9913;51.168;4.124;2023-10-09T06:52:33;15.53;106.84
19536;HTU21D;9913;51.168;4.124;2023-10-09T06:55:17;15.52;107.04
19536;HTU21D;9913;51.168;4.124;2023-10-09T06:57:59;15.62;106.69
19536;HTU21D;9913;51.168;4.124;2023-10-09T07:00:28;15.59;106.80
19536;HTU21D;9913;51.168;4.124;2023-10-09T07:03:19;15.73;106.75
19536;HTU21D;9913;51.168;4.124;2023-10-09T07:06:06;15.85;106.86
19536;HTU21D;9913;51.168;4.124;2023-10-09T07:08:37;15.89;106.63
19536;HTU21D;9913;51.168;4.124;2023-10-09T07:11:07;15.92;106.69
19536;HTU21D;9913;51.168;4.124;2023-10-09T07:13:48;15.99;107.24
19536;HTU21D;9913;51.168;4.124;2023-10-09T07:16:23;16.16;106.59
19536;HTU21D;9913;51.168;4.124;2023-10-09T07:18:56;16.17;106.36
19536;HTU21D;9913;51.168;4.124;2023-10-09T07:21:36;16.31;106.27
19536;HTU21D;9913;51.168;4.124;2023-10-09T07:24:06;16.25;106.34
19536;HTU21D;9913;51.168;4.124;2023-10-09T07:26:45;16.41;105.99
19536;HTU21D;9913;51.168;4.124;2023-10-09T07:29:20;16.46;105.72
19536;HTU21D;9913;51.168;4.124;2023-10-09T07:31:52;16.41;105.83
19536;HTU21D;9913;51.168;4.124;2023-10-09T07:34:25;16.35;106.21
19536;HTU21D;9913;51.168;4.124;2023-10-09T07:36:58;16.48;105.95
19536;HTU21D;9913;51.168;4.124;2023-10-09T07:39:31;16.48;105.80
19536;HTU21D;9913;51.168;4.124;2023-10-09T07:42:06;16.51;106.06
19536;HTU21D;9913;51.168;4.124;2023-10-09T07:44:47;16.44;106.01
19536;HTU21D;9913;51.168;4.124;2023-10-09T07:47:21;16.40;106.00
19536;HTU21D;9913;51.168;4.124;2023-10-09T07:50:13;16.37;106.15
19536;HTU21D;9913;51.168;4.124;2023-10-09T07:52:48;16.40;105.98
19536;HTU21D;9913;51.168;4.124;2023-10-09T07:55:17;16.43;105.92
19536;HTU21D;9913;51.168;4.124;2023-10-09T07:57:58;16.45;106.63
19536;HTU21D;9913;51.168;4.124;2023-10-09T08:00:38;16.49;106.14
19536;HTU21D;9913;51.168;4.124;2023-10-09T08:03:33;16.50;105.95
19536;HTU21D;9913;51.168;4.124;2023-10-09T08:06:03;16.59;105.79
19536;HTU21D;9913;51.168;4.124;2023-10-09T08:08:52;16.71;105.76
19536;HTU21D;9913;51.168;4.124;2023-10-09T08:11:34;16.82;105.61
19536;HTU21D;9913;51.168;4.124;2023-10-09T08:14:11;16.96;105.50
19536;HTU21D;9913;51.168;4.124;2023-10-09T08:17:07;17.15;105.31
19536;HTU21D;9913;51.168;4.124;2023-10-09T08:19:46;17.16;105.34
19536;HTU21D;9913;51.168;4.124;2023-10-09T08:22:22;17.25;105.70
19536;HTU21D;9913;51.168;4.124;2023-10-09T08:25:11;17.14;105.61
19536;HTU21D;9913;51.168;4.124;2023-10-09T08:27:55;17.20;105.72
19536;HTU21D;9913;51.168;4.124;2023-10-09T08:30:27;17.30;105.34
19536;HTU21D;9913;51.168;4.124;2023-10-09T08:33:16;17.45;105.48
19536;HTU21D;9913;51.168;4.124;2023-10-09T08:36:10;17.55;104.94
19536;HTU21D;9913;51.168;4.124;2023-10-09T08:38:42;17.75;105.20
19536;HTU21D;9913;51.168;4.124;2023-10-09T08:41:12;17.84;104.16
19536;HTU21D;9913;51.168;4.124;2023-10-09T08:43:51;17.77;104.37
19536;HTU21D;9913;51.168;4.124;2023-10-09T08:46:23;17.90;104.58
19536;HTU21D;9913;51.168;4.124;2023-10-09T08:48:54;18.02;104.50
19536;HTU21D;9913;51.168;4.124;2023-10-09T08:51:24;17.99;104.44
19536;HTU21D;9913;51.168;4.124;2023-10-09T08:53:53;17.82;104.09
19536;HTU21D;9913;51.168;4.124;2023-10-09T08:56:22;17.95;104.77
19536;HTU21D;9913;51.168;4.124;2023-10-09T08:58:51;17.99;105.05
19536;HTU21D;9913;51.168;4.124;2023-10-09T09:01:23;18.07;104.22
19536;HTU21D;9913;51.168;4.124;2023-10-09T09:03:53;18.30;104.59
19536;HTU21D;9913;51.168;4.124;2023-10-09T09:06:23;18.38;104.03
19536;HTU21D;9913;51.168;4.124;2023-10-09T09:08:52;18.36;104.03
19536;HTU21D;9913;51.168;4.124;2023-10-09T09:11:27;18.56;103.76
19536;HTU21D;9913;51.168;4.124;2023-10-09T09:14:03;18.53;104.31
19536;HTU21D;9913;51.168;4.124;2023-10-09T09:16:35;18.63;103.34
19536;HTU21D;9913;51.168;4.124;2023-10-09T09:19:05;18.67;103.34
19536;HTU21D;9913;51.168;4.124;2023-10-09T09:21:49;18.53;103.74
19536;HTU21D;9913;51.168;4.124;2023-10-09T09:24:22;18.61;103.25
19536;HTU21D;9913;51.168;4.124;2023-10-09T09:27:02;18.65;102.44
19536;HTU21D;9913;51.168;4.124;2023-10-09T09:29:45;18.61;103.01
19536;HTU21D;9913;51.168;4.124;2023-10-09T09:32:29;18.77;102.23
19536;HTU21D;9913;51.168;4.124;2023-10-09T09:35:05;18.80;103.12
19536;HTU21D;9913;51.168;4.124;2023-10-09T09:37:53;18.86;102.28
19536;HTU21D;9913;51.168;4.124;2023-10-09T09:40:22;18.87;101.70
19536;HTU21D;9913;51.168;4.124;2023-10-09T09:43:02;18.83;102.57
19536;HTU21D;9913;51.168;4.124;2023-10-09T09:45:35;18.83;103.11
19536;HTU21D;9913;51.168;4.124;2023-10-09T09:48:05;18.78;102.28
19536;HTU21D;9913;51.168;4.124;2023-10-09T09:50:42;18.97;102.12
19536;HTU21D;9913;51.168;4.124;2023-10-09T09:53:12;19.08;103.12
19536;HTU21D;9913;51.168;4.124;2023-10-09T09:55:49;19.09;102.47
19536;HTU21D;9913;51.168;4.124;2023-10-09T09:58:24;19.32;102.41
19536;HTU21D;9913;51.168;4.124;2023-10-09T10:01:01;19.59;102.18
19536;HTU21D;9913;51.168;4.124;2023-10-09T10:03:40;19.62;101.53
19536;HTU21D;9913;51.168;4.124;2023-10-09T10:06:12;19.65;100.84
19536;HTU21D;9913;51.168;4.124;2023-10-09T10:08:41;19.63;101.05
19536;HTU21D;9913;51.168;4.124;2023-10-09T10:11:43;19.68;101.91
19536;HTU21D;9913;51.168;4.124;2023-10-09T10:14:12;19.48;100.65
19536;HTU21D;9913;51.168;4.124;2023-10-09T10:17:03;19.38;101.44
19536;HTU21D;9913;51.168;4.124;2023-10-09T10:19:59;19.53;101.02
19536;HTU21D;9913;51.168;4.124;2023-10-09T10:22:41;19.47;101.15
19536;HTU21D;9913;51.168;4.124;2023-10-09T10:25:32;19.60;102.26
19536;HTU21D;9913;51.168;4.124;2023-10-09T10:28:19;19.70;101.14
19536;HTU21D;9913;51.168;4.124;2023-10-09T10:31:03;19.66;102.30
19536;HTU21D;9913;51.168;4.124;2023-10-09T10:34:04;19.47;101.77
19536;HTU21D;9913;51.168;4.124;2023-10-09T10:36:39;19.72;102.31
19536;HTU21D;9913;51.168;4.124;2023-10-09T10:39:11;19.74;101.58
19536;HTU21D;9913;51.168;4.124;2023-10-09T10:41:55;19.87;101.25
19536;HTU21D;9913;51.168;4.124;2023-10-09T10:44:26;19.75;101.83
19536;HTU21D;9913;51.168;4.124;2023-10-09T10:47:12;19.83;101.51
19536;HTU21D;9913;51.168;4.124;2023-10-09T10:49:53;19.75;100.58
19536;HTU21D;9913;51.168;4.124;2023-10-09T10:52:28;19.86;101.02
19536;HTU21D;9913;51.168;4.124;2023-10-09T10:55:12;19.94;101.56
19536;HTU21D;9913;51.168;4.124;2023-10-09T10:58:15;19.94;101.93
19536;HTU21D;9913;51.168;4.124;2023-10-09T11:00:54;19.95;102.22
19536;HTU21D;9913;51.168;4.124;2023-10-09T11:03:40;20.00;101.83
19536;HTU21D;9913;51.168;4.124;2023-10-09T11:06:27;20.10;100.74
19536;HTU21D;9913;51.168;4.124;2023-10-09T11:09:07;20.11;101.19
19536;HTU21D;9913;51.168;4.124;2023-10-09T11:11:49;20.50;100.41
19536;HTU21D;9913;51.168;4.124;2023-10-09T11:14:22;20.40;99.91
19536;HTU21D;9913;51.168;4.124;2023-10-09T11:16:51;20.19;101.10
19536;HTU21D;9913;51.168;4.124;2023-10-09T11:19:26;20.35;100.67
19536;HTU21D;9913;51.168;4.124;2023-10-09T11:22:00;20.32;100.21
19536;HTU21D;9913;51.168;4.124;2023-10-09T11:24:50;20.17;100.87
19536;HTU21D;9913;51.168;4.124;2023-10-09T11:27:41;20.16;101.07
19536;HTU21D;9913;51.168;4.124;2023-10-09T11:30:18;20.14;100.53
19536;HTU21D;9913;51.168;4.124;2023-10-09T11:33:06;20.30;100.22
19536;HTU21D;9913;51.168;4.124;2023-10-09T11:35:42;20.25;100.11
19536;HTU21D;9913;51.168;4.124;2023-10-09T11:38:23;20.27;100.12
19536;HTU21D;9913;51.168;4.124;2023-10-09T11:40:54;20.31;99.48
19536;HTU21D;9913;51.168;4.124;2023-10-09T11:43:46;20.24;100.27
19536;HTU21D;9913;51.168;4.124;2023-10-09T11:46:21;20.44;100.00
19536;HTU21D;9913;51.168;4.124;2023-10-09T11:49:15;20.41;99.59
19536;HTU21D;9913;51.168;4.124;2023-10-09T11:52:08;20.60;98.56
19536;HTU21D;9913;51.168;4.124;2023-10-09T11:54:54;20.55;98.90
19536;HTU21D;9913;51.168;4.124;2023-10-09T11:57:25;20.44;98.43
19536;HTU21D;9913;51.168;4.124;2023-10-09T11:59:58;20.58;98.84
19536;HTU21D;9913;51.168;4.124;2023-10-09T12:02:30;20.71;98.06
19536;HTU21D;9913;51.168;4.124;2023-10-09T12:04:59;20.68;98.31
19536;HTU21D;9913;51.168;4.124;2023-10-09T12:07:28;20.70;98.71
19536;HTU21D;9913;51.168;4.124;2023-10-09T12:09:56;20.76;99.54
19536;HTU21D;9913;51.168;4.124;2023-10-09T12:12:26;20.89;98.81
19536;HTU21D;9913;51.168;4.124;2023-10-09T12:14:54;20.66;98.08
19536;HTU21D;9913;51.168;4.124;2023-10-09T12:17:24;20.70;98.47
19536;HTU21D;9913;51.168;4.124;2023-10-09T12:19:53;20.76;98.03
19536;HTU21D;9913;51.168;4.124;2023-10-09T12:22:23;20.61;98.51
19536;HTU21D;9913;51.168;4.124;2023-10-09T12:24:54;20.60;98.26
19536;HTU21D;9913;51.168;4.124;2023-10-09T12:27:23;20.71;98.40
19536;HTU21D;9913;51.168;4.124;2023-10-09T12:29:53;20.51;98.94
19536;HTU21D;9913;51.168;4.124;2023-10-09T12:32:24;20.69;99.44
19536;HTU21D;9913;51.168;4.124;2023-10-09T12:34:52;20.76;99.35
19536;HTU21D;9913;51.168;4.124;2023-10-09T12:37:20;20.72;98.06
19536;HTU21D;9913;51.168;4.124;2023-10-09T12:39:51;20.59;98.39
19536;HTU21D;9913;51.168;4.124;2023-10-09T12:42:23;20.60;98.23
19536;HTU21D;9913;51.168;4.124;2023-10-09T12:44:52;20.32;99.39
19536;HTU21D;9913;51.168;4.124;2023-10-09T12:47:24;20.40;98.98
19536;HTU21D;9913;51.168;4.124;2023-10-09T12:49:53;20.51;98.82
19536;HTU21D;9913;51.168;4.124;2023-10-09T12:52:23;20.58;99.17
19536;HTU21D;9913;51.168;4.124;2023-10-09T12:54:57;20.41;98.94
19536;HTU21D;9913;51.168;4.124;2023-10-09T12:57:25;20.32;99.76
19536;HTU21D;9913;51.168;4.124;2023-10-09T12:59:55;20.39;100.16
19536;HTU21D;9913;51.168;4.124;2023-10-09T13:02:23;20.40;101.03
19536;HTU21D;9913;51.168;4.124;2023-10-09T13:04:57;20.86;99.48
19536;HTU21D;9913;51.168;4.124;2023-10-09T13:07:27;20.89;99.25
19536;HTU21D;9913;51.168;4.124;2023-10-09T13:09:56;20.77;98.99
19536;HTU21D;9913;51.168;4.124;2023-10-09T13:12:44;20.71;98.26
19536;HTU21D;9913;51.168;4.124;2023-10-09T13:15:13;20.81;99.25
19536;HTU21D;9913;51.168;4.124;2023-10-09T13:17:42;20.59;99.26
19536;HTU21D;9913;51.168;4.124;2023-10-09T13:20:10;20.64;99.67
19536;HTU21D;9913;51.168;4.124;2023-10-09T13:22:41;20.64;99.84
19536;HTU21D;9913;51.168;4.124;2023-10-09T13:25:10;20.53;100.76
19536;HTU21D;9913;51.168;4.124;2023-10-09T13:28:00;20.51;99.81
19536;HTU21D;9913;51.168;4.124;2023-10-09T13:30:37;20.48;100.72
19536;HTU21D;9913;51.168;4.124;2023-10-09T13:33:15;20.39;101.65
19536;HTU21D;9913;51.168;4.124;2023-10-09T13:35:49;20.41;100.88
19536;HTU21D;9913;51.168;4.124;2023-10-09T13:38:18;20.33;101.05
19536;HTU21D;9913;51.168;4.124;2023-10-09T13:40:47;20.45;101.54
19536;HTU21D;9913;51.168;4.124;2023-10-09T13:43:16;20.40;100.51
19536;HTU21D;9913;51.168;4.124;2023-10-09T13:45:46;20.50;99.97
19536;HTU21D;9913;51.168;4.124;2023-10-09T13:48:17;20.54;100.82
19536;HTU21D;9913;51.168;4.124;2023-10-09T13:50:48;20.62;100.32
19536;HTU21D;9913;51.168;4.124;2023-10-09T13:53:16;20.60;100.67
19536;HTU21D;9913;51.168;4.124;2023-10-09T13:55:45;20.61;100.74
19536;HTU21D;9913;51.168;4.124;2023-10-09T13:58:14;20.62;100.17
19536;HTU21D;9913;51.168;4.124;2023-10-09T14:00:49;20.68;100.06
19536;HTU21D;9913;51.168;4.124;2023-10-09T14:03:20;20.99;100.06
19536;HTU21D;9913;51.168;4.124;2023-10-09T14:05:50;20.77;98.80
19536;HTU21D;9913;51.168;4.124;2023-10-09T14:08:24;20.61;100.33
19536;HTU21D;9913;51.168;4.124;2023-10-09T14:10:53;20.63;100.05
19536;HTU21D;9913;51.168;4.124;2023-10-09T14:13:22;20.58;100.70
19536;HTU21D;9913;51.168;4.124;2023-10-09T14:15:58;20.46;100.12
19536;HTU21D;9913;51.168;4.124;2023-10-09T14:18:29;20.46;101.31
19536;HTU21D;9913;51.168;4.124;2023-10-09T14:21:01;20.55;100.29
19536;HTU21D;9913;51.168;4.124;2023-10-09T14:23:32;20.58;101.09
19536;HTU21D;9913;51.168;4.124;2023-10-09T14:26:03;20.45;100.74
19536;HTU21D;9913;51.168;4.124;2023-10-09T14:28:33;20.59;100.22
19536;HTU21D;9913;51.168;4.124;2023-10-09T14:31:03;20.59;100.96
19536;HTU21D;9913;51.168;4.124;2023-10-09T14:33:38;20.50;101.60
19536;HTU21D;9913;51.168;4.124;2023-10-09T14:36:07;20.55;101.28
19536;HTU21D;9913;51.168;4.124;2023-10-09T14:38:35;20.89;101.32
19536;HTU21D;9913;51.168;4.124;2023-10-09T14:41:06;20.87;100.86
19536;HTU21D;9913;51.168;4.124;2023-10-09T14:43:39;20.93;100.85
19536;HTU21D;9913;51.168;4.124;2023-10-09T14:46:14;20.77;99.95
19536;HTU21D;9913;51.168;4.124;2023-10-09T14:48:43;20.63;100.38
19536;HTU21D;9913;51.168;4.124;2023-10-09T14:51:14;20.45;100.58
19536;HTU21D;9913;51.168;4.124;2023-10-09T14:53:42;20.20;101.15
19536;HTU21D;9913;51.168;4.124;2023-10-09T14:56:11;20.49;101.34
19536;HTU21D;9913;51.168;4.124;2023-10-09T14:58:43;20.86;101.32
19536;HTU21D;9913;51.168;4.124;2023-10-09T15:01:15;20.80;100.70
19536;HTU21D;9913;51.168;4.124;2023-10-09T15:03:47;20.61;99.69
19536;HTU21D;9913;51.168;4.124;2023-10-09T15:06:19;20.32;100.38
19536;HTU21D;9913;51.168;4.124;2023-10-09T15:08:48;20.12;100.89
19536;HTU21D;9913;51.168;4.124;2023-10-09T15:11:16;20.05;100.12
19536;HTU21D;9913;51.168;4.124;2023-10-09T15:13:44;20.18;100.05
19536;HTU21D;9913;51.168;4.124;2023-10-09T15:16:15;20.15;100.23
19536;HTU21D;9913;51.168;4.124;2023-10-09T15:18:44;20.06;99.95
19536;HTU21D;9913;51.168;4.124;2023-10-09T15:21:14;19.95;101.02
19536;HTU21D;9913;51.168;4.124;2023-10-09T15:23:43;20.02;100.87
19536;HTU21D;9913;51.168;4.124;2023-10-09T15:26:11;19.92;100.52
19536;HTU21D;9913;51.168;4.124;2023-10-09T15:28:44;19.91;100.22
19536;HTU21D;9913;51.168;4.124;2023-10-09T15:31:13;19.88;100.96
19536;HTU21D;9913;51.168;4.124;2023-10-09T15:33:44;19.79;101.64
19536;HTU21D;9913;51.168;4.124;2023-10-09T15:36:15;19.71;101.89
19536;HTU21D;9913;51.168;4.124;2023-10-09T15:38:45;19.63;101.80
19536;HTU21D;9913;51.168;4.124;2023-10-09T15:41:13;19.67;101.82
19536;HTU21D;9913;51.168;4.124;2023-10-09T15:43:43;19.61;102.06
19536;HTU21D;9913;51.168;4.124;2023-10-09T15:46:13;19.51;102.36
19536;HTU21D;9913;51.168;4.124;2023-10-09T15:48:48;19.55;101.32
19536;HTU21D;9913;51.168;4.124;2023-10-09T15:51:18;19.51;101.38
19536;HTU21D;9913;51.168;4.124;2023-10-09T15:53:46;19.42;102.03
19536;HTU21D;9913;51.168;4.124;2023-10-09T15:56:15;19.33;102.26
19536;HTU21D;9913;51.168;4.124;2023-10-09T15:58:45;19.23;102.89
19536;HTU21D;9913;51.168;4.124;2023-10-09T16:01:14;19.18;103.15
19536;HTU21D;9913;51.168;4.124;2023-10-09T16:03:47;19.15;103.59
19536;HTU21D;9913;51.168;4.124;2023-10-09T16:06:18;19.10;103.65
19536;HTU21D;9913;51.168;4.124;2023-10-09T16:08:47;19.10;103.37
19536;HTU21D;9913;51.168;4.124;2023-10-09T16:11:18;19.05;103.78